createdAt,value
2019-05-25T00:01:49.869Z,6.37
2019-05-25T00:04:16.825Z,7.33
2019-05-25T00:06:43.777Z,6.87
2019-05-25T00:09:10.750Z,5.50
2019-05-25T00:11:37.707Z,6.37
2019-05-25T00:14:04.685Z,4.43
2019-05-25T00:16:31.643Z,4.43
2019-05-25T00:18:58.594Z,6.87
2019-05-25T00:21:25.579Z,5.63
2019-05-25T00:23:52.575Z,6.23
2019-05-25T00:26:19.552Z,6.07
2019-05-25T00:28:46.520Z,6.47
2019-05-25T00:31:13.467Z,4.30
2019-05-25T00:33:40.402Z,5.87
2019-05-25T00:36:07.374Z,6.33
2019-05-25T00:38:34.335Z,4.57
2019-05-25T00:41:01.319Z,5.93
2019-05-25T00:43:28.288Z,4.33
2019-05-25T00:45:55.236Z,4.37
2019-05-25T00:48:22.192Z,4.33
2019-05-25T00:50:49.186Z,4.90
2019-05-25T00:53:16.128Z,6.50
2019-05-25T00:55:43.074Z,6.47
2019-05-25T00:58:10.079Z,4.87
2019-05-25T01:00:37.134Z,7.93
2019-05-25T01:03:04.381Z,4.50
2019-05-25T01:05:31.350Z,7.20
2019-05-25T01:07:58.313Z,7.17
2019-05-25T01:10:25.257Z,5.53
2019-05-25T01:12:52.211Z,6.17
2019-05-25T01:15:19.468Z,4.60
2019-05-25T01:17:46.420Z,5.43
2019-05-25T01:20:14.301Z,5.13
2019-05-25T01:22:41.264Z,6.43
2019-05-25T01:25:08.678Z,6.23
2019-05-25T01:27:35.687Z,7.73
2019-05-25T01:30:03.886Z,6.00
2019-05-25T01:32:30.839Z,4.43
2019-05-25T01:34:57.841Z,4.37
2019-05-25T01:37:24.812Z,3.60
2019-05-25T01:39:51.761Z,3.80
2019-05-25T01:42:18.793Z,3.30
2019-05-25T01:44:45.764Z,3.43
2019-05-25T01:47:12.730Z,4.63
2019-05-25T01:49:39.700Z,2.70
2019-05-25T01:52:06.654Z,5.30
2019-05-25T01:54:33.616Z,5.50
2019-05-25T01:57:00.592Z,6.40
2019-05-25T01:59:27.545Z,7.27
2019-05-25T02:01:54.508Z,6.43
2019-05-25T02:04:21.497Z,4.63
2019-05-25T02:06:48.453Z,6.10
2019-05-25T02:09:15.391Z,6.00
2019-05-25T02:11:42.353Z,4.40
2019-05-25T02:14:09.329Z,4.23
2019-05-25T02:16:36.311Z,4.57
2019-05-25T02:19:03.378Z,3.73
2019-05-25T02:21:30.349Z,6.80
2019-05-25T02:23:57.330Z,5.27
2019-05-25T02:26:24.357Z,4.63
2019-05-25T02:28:51.344Z,9.10
2019-05-25T02:31:18.297Z,4.83
2019-05-25T02:33:45.256Z,3.03
2019-05-25T02:36:12.209Z,3.53
2019-05-25T02:38:39.217Z,4.37
2019-05-25T02:41:06.146Z,4.00
2019-05-25T02:43:33.228Z,1.93
2019-05-25T02:46:00.188Z,2.77
2019-05-25T02:48:27.131Z,1.73
2019-05-25T02:50:54.094Z,3.00
2019-05-25T02:53:21.058Z,3.03
2019-05-25T02:55:48.032Z,2.70
2019-05-25T02:58:14.981Z,3.60
2019-05-25T03:00:41.929Z,2.90
2019-05-25T03:03:08.903Z,2.00
2019-05-25T03:05:35.862Z,1.20
2019-05-25T03:08:02.913Z,2.73
2019-05-25T03:10:30.304Z,2.70
2019-05-25T03:13:00.131Z,2.57
2019-05-25T03:15:27.082Z,2.50
2019-05-25T03:17:54.057Z,2.07
2019-05-25T03:20:21.003Z,3.70
2019-05-25T03:22:47.977Z,3.60
2019-05-25T03:25:14.929Z,3.07
2019-05-25T03:27:41.945Z,2.30
2019-05-25T03:30:09.484Z,2.03
2019-05-25T03:32:36.489Z,2.67
2019-05-25T03:35:04.126Z,3.53
2019-05-25T03:37:31.082Z,3.20
2019-05-25T03:39:58.040Z,3.83
2019-05-25T03:42:24.979Z,2.37
2019-05-25T03:44:51.986Z,2.50
2019-05-25T03:47:18.932Z,2.43
2019-05-25T03:49:45.891Z,4.97
2019-05-25T03:52:12.876Z,2.23
2019-05-25T03:54:39.832Z,3.40
2019-05-25T03:57:06.800Z,4.97
2019-05-25T03:59:33.750Z,3.30
2019-05-25T04:02:00.723Z,3.40
2019-05-25T04:04:27.687Z,5.10
2019-05-25T04:06:54.636Z,2.57
2019-05-25T04:09:21.610Z,3.40
2019-05-25T04:11:48.596Z,4.17
2019-05-25T04:14:15.561Z,4.40
2019-05-25T04:16:42.559Z,4.87
2019-05-25T04:19:09.515Z,4.93
2019-05-25T04:21:36.457Z,4.40
2019-05-25T04:24:03.732Z,4.80
2019-05-25T04:26:30.726Z,7.03
2019-05-25T04:28:57.677Z,4.20
2019-05-25T04:31:24.665Z,4.43
2019-05-25T04:33:51.606Z,4.00
2019-05-25T04:36:18.563Z,4.90
2019-05-25T04:38:45.543Z,3.43
2019-05-25T04:41:12.497Z,2.13
2019-05-25T04:43:39.486Z,2.60
2019-05-25T04:46:06.459Z,2.63
2019-05-25T04:48:33.434Z,2.57
2019-05-25T04:51:00.392Z,2.23
2019-05-25T04:53:27.353Z,5.57
2019-05-25T04:55:54.307Z,4.30
2019-05-25T04:58:21.260Z,2.90
2019-05-25T05:00:48.221Z,4.10
2019-05-25T05:03:15.170Z,3.13
2019-05-25T05:05:43.016Z,4.73
2019-05-25T05:08:09.976Z,6.43
2019-05-25T05:10:36.935Z,6.13
2019-05-25T05:13:03.914Z,5.20
2019-05-25T05:15:30.883Z,7.00
2019-05-25T05:17:57.811Z,5.87
2019-05-25T05:20:24.797Z,6.03
2019-05-25T05:22:51.772Z,6.77
2019-05-25T05:25:18.783Z,4.63
2019-05-25T05:27:45.786Z,7.13
2019-05-25T05:30:13.072Z,6.70
2019-05-25T05:32:40.020Z,4.80
2019-05-25T05:35:07.461Z,2.50
2019-05-25T05:37:35.292Z,3.40
2019-05-25T05:40:02.246Z,2.50
2019-05-25T05:42:32.052Z,3.13
2019-05-25T05:45:00.821Z,3.23
2019-05-25T05:47:29.979Z,5.00
2019-05-25T05:50:01.036Z,3.20
2019-05-25T05:52:31.618Z,2.63
2019-05-25T05:55:01.186Z,2.50
2019-05-25T05:57:28.149Z,4.00
2019-05-25T05:59:55.091Z,2.50
2019-05-25T06:02:22.061Z,1.70
2019-05-25T06:04:49.021Z,4.80
2019-05-25T06:07:15.986Z,3.00
2019-05-25T06:09:42.932Z,4.90
2019-05-25T06:12:09.912Z,2.77
2019-05-25T06:14:36.856Z,3.03
2019-05-25T06:17:03.806Z,1.90
2019-05-25T06:19:30.800Z,4.37
2019-05-25T06:21:57.753Z,2.17
2019-05-25T06:24:24.736Z,3.03
2019-05-25T06:26:51.889Z,2.80
2019-05-25T06:29:18.843Z,2.60
2019-05-25T06:31:45.820Z,2.70
2019-05-25T06:34:12.898Z,3.27
2019-05-25T06:36:39.866Z,2.90
2019-05-25T06:39:10.099Z,3.60
2019-05-25T06:41:37.101Z,2.60
2019-05-25T06:44:04.220Z,3.07
2019-05-25T06:46:31.176Z,2.23
2019-05-25T06:48:58.195Z,3.10
2019-05-25T06:51:25.240Z,3.93
2019-05-25T06:53:52.207Z,4.60
2019-05-25T06:56:19.183Z,4.00
2019-05-25T06:58:46.196Z,3.90
2019-05-25T07:01:13.399Z,3.33
2019-05-25T07:03:40.399Z,3.13
2019-05-25T07:06:07.358Z,8.37
2019-05-25T07:08:34.315Z,3.43
2019-05-25T07:11:01.310Z,3.07
2019-05-25T07:13:28.723Z,4.90
2019-05-25T07:15:55.745Z,1.60
2019-05-25T07:18:22.717Z,4.13
2019-05-25T07:20:49.768Z,1.37
2019-05-25T07:23:17.569Z,2.40
2019-05-25T07:25:44.575Z,1.97
2019-05-25T07:28:11.624Z,2.87
2019-05-25T07:30:38.754Z,1.93
2019-05-25T07:33:05.693Z,2.93
2019-05-25T07:35:32.658Z,1.93
2019-05-25T07:37:59.650Z,1.37
2019-05-25T07:40:26.605Z,2.17
2019-05-25T07:42:53.547Z,2.93
2019-05-25T07:45:20.548Z,1.27
2019-05-25T07:47:47.615Z,1.53
2019-05-25T07:50:15.117Z,2.10
2019-05-25T07:52:44.348Z,2.70
2019-05-25T07:55:11.402Z,2.50
2019-05-25T07:57:38.352Z,3.57
2019-05-25T08:00:05.911Z,4.03
2019-05-25T08:02:32.888Z,1.63
2019-05-25T08:04:59.876Z,1.20
2019-05-25T08:07:26.886Z,4.47
2019-05-25T08:09:53.862Z,2.07
2019-05-25T08:12:20.864Z,2.93
2019-05-25T08:14:47.871Z,1.80
2019-05-25T08:17:14.848Z,2.40
2019-05-25T08:19:41.848Z,2.03
2019-05-25T08:22:10.178Z,2.73
2019-05-25T08:24:37.232Z,3.70
2019-05-25T08:27:04.247Z,3.27
2019-05-25T08:29:31.217Z,2.07
2019-05-25T08:31:58.184Z,2.23
2019-05-25T08:34:25.183Z,3.20
2019-05-25T08:36:52.168Z,2.03
2019-05-25T08:39:19.122Z,3.83
2019-05-25T08:41:46.195Z,1.57
2019-05-25T08:44:13.133Z,3.03
2019-05-25T08:46:40.095Z,1.27
2019-05-25T08:49:07.046Z,1.60
2019-05-25T08:51:34.077Z,2.40
2019-05-25T08:54:01.052Z,0.63
2019-05-25T08:56:28.021Z,0.70
2019-05-25T08:58:55.730Z,0.53
2019-05-25T09:01:22.749Z,0.87
2019-05-25T09:03:49.698Z,1.00
2019-05-25T09:06:16.644Z,2.07
2019-05-25T09:08:43.599Z,1.67
2019-05-25T09:11:10.556Z,1.87
2019-05-25T09:13:37.537Z,2.17
2019-05-25T09:16:04.591Z,1.57
2019-05-25T09:18:31.567Z,0.70
2019-05-25T09:20:58.534Z,1.10
2019-05-25T09:23:25.548Z,5.60
2019-05-25T09:25:52.585Z,3.13
2019-05-25T09:28:19.575Z,2.33
2019-05-25T09:30:46.535Z,3.03
2019-05-25T09:33:13.493Z,4.33
2019-05-25T09:35:40.448Z,1.97
2019-05-25T09:38:07.412Z,2.00
2019-05-25T09:40:34.370Z,1.90
2019-05-25T09:43:01.375Z,3.63
2019-05-25T09:45:28.326Z,2.57
2019-05-25T09:47:55.279Z,1.97
2019-05-25T09:50:22.244Z,0.83
2019-05-25T09:52:49.212Z,2.60
2019-05-25T09:55:16.395Z,1.47
2019-05-25T09:57:43.449Z,1.23
2019-05-25T10:00:11.208Z,2.93
2019-05-25T10:02:38.260Z,1.40
2019-05-25T10:05:05.498Z,0.60
2019-05-25T10:07:32.475Z,1.00
2019-05-25T10:09:59.445Z,2.80
2019-05-25T10:12:26.458Z,2.30
2019-05-25T10:14:53.416Z,1.90
2019-05-25T10:17:20.399Z,1.63
2019-05-25T10:19:47.426Z,1.83
2019-05-25T10:22:14.391Z,3.20
2019-05-25T10:24:41.361Z,2.17
2019-05-25T10:27:08.362Z,1.70
2019-05-25T10:29:37.699Z,1.90
2019-05-25T10:32:05.099Z,2.07
2019-05-25T10:34:32.076Z,2.40
2019-05-25T10:36:59.153Z,2.63
2019-05-25T10:39:26.480Z,1.90
2019-05-25T10:41:53.462Z,1.53
2019-05-25T10:44:20.450Z,1.80
2019-05-25T10:46:47.486Z,1.30
2019-05-25T10:49:17.531Z,0.70
2019-05-25T10:51:44.481Z,1.70
2019-05-25T10:54:11.499Z,1.30
2019-05-25T10:56:38.451Z,1.17
2019-05-25T10:59:12.031Z,2.10
2019-05-25T11:01:40.213Z,1.20
2019-05-25T11:04:07.139Z,3.37
2019-05-25T11:06:35.013Z,4.13
2019-05-25T11:09:02.626Z,2.07
2019-05-25T11:11:29.564Z,1.37
2019-05-25T11:13:56.565Z,1.07
2019-05-25T11:16:23.557Z,1.10
2019-05-25T11:18:50.485Z,2.07
2019-05-25T11:21:17.485Z,1.70
2019-05-25T11:23:44.447Z,1.53
2019-05-25T11:26:11.475Z,1.20
2019-05-25T11:28:38.504Z,1.30
2019-05-25T11:31:08.580Z,2.20
2019-05-25T11:33:36.481Z,1.47
2019-05-25T11:36:03.644Z,1.47
2019-05-25T11:38:30.627Z,2.30
2019-05-25T11:40:57.566Z,2.30
2019-05-25T11:43:24.532Z,1.70
2019-05-25T11:45:51.508Z,0.87
2019-05-25T11:48:18.457Z,1.20
2019-05-25T11:50:45.400Z,1.43
2019-05-25T11:53:12.378Z,2.37
2019-05-25T11:55:39.444Z,1.27
2019-05-25T11:58:06.428Z,2.10
2019-05-25T12:00:33.440Z,1.17
2019-05-25T12:03:00.411Z,1.07
2019-05-25T12:05:27.402Z,1.97
2019-05-25T12:07:54.353Z,1.20
2019-05-25T12:10:22.163Z,0.80
2019-05-25T12:12:49.175Z,0.90
2019-05-25T12:15:16.311Z,2.20
2019-05-25T12:17:43.343Z,1.17
2019-05-25T12:20:11.018Z,3.67
2019-05-25T12:22:37.970Z,0.87
2019-05-25T12:25:05.390Z,1.27
2019-05-25T12:27:32.351Z,1.83
2019-05-25T12:29:59.368Z,1.20
2019-05-25T12:32:26.332Z,1.20
2019-05-25T12:34:53.317Z,1.23
2019-05-25T12:37:20.292Z,0.90
2019-05-25T12:39:47.242Z,1.33
2019-05-25T12:42:14.234Z,1.23
2019-05-25T12:44:41.231Z,1.13
2019-05-25T12:47:08.301Z,1.53
2019-05-25T12:49:50.175Z,1.97
2019-05-25T12:52:04.155Z,2.07
2019-05-25T12:54:31.128Z,1.90
2019-05-25T12:56:58.157Z,2.00
2019-05-25T12:59:25.196Z,3.33
2019-05-25T13:01:52.232Z,1.67
2019-05-25T13:04:19.227Z,3.23
2019-05-25T13:06:46.180Z,1.10
2019-05-25T13:09:13.137Z,2.40
2019-05-25T13:11:40.117Z,1.63
2019-05-25T13:14:14.447Z,0.97
2019-05-25T13:16:35.957Z,1.93
2019-05-25T13:19:02.934Z,1.50
2019-05-25T13:21:29.938Z,2.10
2019-05-25T13:23:56.942Z,1.97
2019-05-25T13:26:23.928Z,3.47
2019-05-25T13:28:51.025Z,3.40
2019-05-25T13:31:18.015Z,3.33
2019-05-25T13:33:44.971Z,1.60
2019-05-25T13:36:11.969Z,2.60
2019-05-25T13:38:38.947Z,2.03
2019-05-25T13:41:05.929Z,3.03
2019-05-25T13:43:32.892Z,3.93
2019-05-25T13:45:59.853Z,1.63
2019-05-25T13:48:26.918Z,1.50
2019-05-25T13:50:53.893Z,3.10
2019-05-25T13:53:20.873Z,1.53
2019-05-25T13:55:47.853Z,2.03
2019-05-25T13:58:14.834Z,2.77
2019-05-25T14:00:41.903Z,2.93
2019-05-25T14:03:08.921Z,2.70
2019-05-25T14:05:35.893Z,3.10
2019-05-25T14:08:02.906Z,4.00
2019-05-25T14:10:29.907Z,1.47
2019-05-25T14:12:56.905Z,2.60
2019-05-25T14:15:23.930Z,1.87
2019-05-25T14:17:51.045Z,1.53
2019-05-25T14:20:18.145Z,2.63
2019-05-25T14:22:45.175Z,3.80
2019-05-25T14:25:12.236Z,2.00
2019-05-25T14:27:39.283Z,2.47
2019-05-25T14:30:06.795Z,2.23
2019-05-25T14:32:33.845Z,2.93
2019-05-25T14:35:00.834Z,1.40
2019-05-25T14:37:27.832Z,2.97
2019-05-25T14:39:54.837Z,2.03
2019-05-25T14:42:21.820Z,2.97
2019-05-25T14:44:48.761Z,2.27
2019-05-25T14:47:15.725Z,1.23
2019-05-25T14:49:42.718Z,1.97
2019-05-25T14:52:09.690Z,1.20
2019-05-25T14:54:36.727Z,2.70
2019-05-25T14:57:03.665Z,1.63
2019-05-25T14:59:30.660Z,1.57
2019-05-25T15:02:02.569Z,1.70
2019-05-25T15:04:26.521Z,2.80
2019-05-25T15:06:53.490Z,2.93
2019-05-25T15:09:20.472Z,2.80
2019-05-25T15:11:47.435Z,4.13
2019-05-25T15:14:14.391Z,4.40
2019-05-25T15:16:41.471Z,1.30
2019-05-25T15:19:08.462Z,1.60
